Time;durP1;ratioP1;P1;durP2;ratioP2;P2;SDS_P1;SDS_P2;PMS_P1;PMS_P2;Temp;Humidity;BMP_temperature;BMP_pressure;BME280_temperature;BME280_humidity;BME280_pressure;Samples;Min_cycle;Max_cycle;Signal;HPM_P1;HPM_P2
2023/02/03 00:01:34;;;;;;;22.45;9.88;;;;;;;;;;5022082;28;20301;-66
2023/02/03 00:03:59;;;;;;;30.65;10.90;;;;;;;;;;5040971;28;20264;-66
2023/02/03 00:06:24;;;;;;;24.02;9.60;;;;;;;;;;5041954;28;20183;-66
2023/02/03 00:08:55;;;;;;;21.05;10.82;;;;;;;;;;5044535;28;20202;-66
2023/02/03 00:11:21;;;;;;;23.88;9.70;;;;;;;;;;5037058;28;20186;-65
2023/02/03 00:13:46;;;;;;;20.75;9.35;;;;;;;;;;5045942;28;20544;-66
2023/02/03 00:16:12;;;;;;;25.70;10.55;;;;;;;;;;5042961;28;20186;-66
2023/02/03 00:18:38;;;;;;;27.52;10.80;;;;;;;;;;5042235;28;20190;-66
2023/02/03 00:21:04;;;;;;;23.02;10.43;;;;;;;;;;5038447;28;20213;-66
2023/02/03 00:23:30;;;;;;;22.80;9.80;;;;;;;;;;5022750;28;20552;-66
2023/02/03 00:25:57;;;;;;;24.13;9.65;;;;;;;;;;5034373;28;20186;-65
2023/02/03 00:28:22;;;;;;;17.73;9.48;;;;;;;;;;5031774;28;20190;-66
2023/02/03 00:30:48;;;;;;;17.70;8.77;;;;;;;;;;5027068;28;20186;-66
2023/02/03 00:33:13;;;;;;;23.25;8.75;;;;;;;;;;5031698;28;20253;-66
2023/02/03 00:35:39;;;;;;;17.00;7.93;;;;;;;;;;5028927;28;20283;-65
2023/02/03 00:38:05;;;;;;;20.40;8.85;;;;;;;;;;5029744;28;20202;-65
2023/02/03 00:40:30;;;;;;;23.55;9.18;;;;;;;;;;5037915;28;20209;-66
2023/02/03 00:42:56;;;;;;;15.90;8.20;;;;;;;;;;5029257;28;20277;-65
2023/02/03 00:45:22;;;;;;;22.08;8.10;;;;;;;;;;5042563;28;20190;-65
2023/02/03 00:47:47;;;;;;;21.65;8.73;;;;;;;;;;5051080;28;20215;-66
2023/02/03 00:50:12;;;;;;;21.50;8.38;;;;;;;;;;5026871;28;20626;-66
2023/02/03 00:52:38;;;;;;;22.33;8.80;;;;;;;;;;5021497;28;20194;-66
2023/02/03 00:55:04;;;;;;;18.00;8.45;;;;;;;;;;5043084;28;20324;-66
2023/02/03 00:57:30;;;;;;;18.40;8.93;;;;;;;;;;5044245;28;20672;-65
2023/02/03 00:59:56;;;;;;;17.52;9.77;;;;;;;;;;5040156;28;20225;-65
2023/02/03 01:02:22;;;;;;;19.02;8.98;;;;;;;;;;5029778;28;20182;-65
2023/02/03 01:04:48;;;;;;;20.92;9.13;;;;;;;;;;5036578;28;20209;-66
2023/02/03 01:07:13;;;;;;;20.45;8.40;;;;;;;;;;5030221;28;20662;-65
2023/02/03 01:09:38;;;;;;;24.48;9.88;;;;;;;;;;5032133;28;20185;-65
2023/02/03 01:12:04;;;;;;;22.40;8.75;;;;;;;;;;5027254;28;20217;-65
2023/02/03 01:14:30;;;;;;;21.40;8.82;;;;;;;;;;5045574;28;20192;-65
2023/02/03 01:16:56;;;;;;;18.85;8.65;;;;;;;;;;5043366;28;20276;-65
2023/02/03 01:19:22;;;;;;;19.27;8.48;;;;;;;;;;5039816;28;20539;-65
2023/02/03 01:21:47;;;;;;;17.80;8.18;;;;;;;;;;5039133;28;20653;-66
2023/02/03 01:24:13;;;;;;;23.02;8.80;;;;;;;;;;5024943;28;20189;-65
2023/02/03 01:26:40;;;;;;;21.90;8.73;;;;;;;;;;5015963;28;20345;-65
2023/02/03 01:29:05;;;;;;;20.83;8.98;;;;;;;;;;5029178;28;20192;-65
2023/02/03 01:31:35;;;;;;;25.17;8.57;;;;;;;;;;5017735;28;20174;-65
2023/02/03 01:34:01;;;;;;;29.38;8.70;;;;;;;;;;5030434;28;20197;-65
2023/02/03 01:36:29;;;;;;;19.42;8.25;;;;;;;;;;5036266;28;20277;-65
2023/02/03 01:38:54;;;;;;;20.02;8.63;;;;;;;;;;5028858;28;20280;-65
2023/02/03 01:41:22;;;;;;;16.33;7.93;;;;;;;;;;5018063;28;20748;-65
2023/02/03 01:43:53;;;;;;;24.95;8.82;;;;;;;;;;5029654;28;20221;-65
2023/02/03 01:46:50;;;;;;;13.85;7.20;;;;;;;;;;5027956;28;20182;-65
2023/02/03 01:49:26;;;;;;;19.33;8.40;;;;;;;;;;5028911;28;20214;-66
2023/02/03 01:51:52;;;;;;;21.50;8.23;;;;;;;;;;5027298;28;20212;-65
2023/02/03 01:54:28;;;;;;;19.80;8.52;;;;;;;;;;5031286;28;20185;-65
2023/02/03 01:57:28;;;;;;;23.08;7.50;;;;;;;;;;5042550;28;20680;-65
2023/02/03 01:59:56;;;;;;;19.67;7.53;;;;;;;;;;5028960;28;20218;-65
2023/02/03 02:02:21;;;;;;;27.63;7.72;;;;;;;;;;5025744;28;20202;-65
2023/02/03 02:04:56;;;;;;;16.77;7.70;;;;;;;;;;5029007;28;20552;-65
2023/02/03 02:07:23;;;;;;;18.38;8.20;;;;;;;;;;5017830;28;20663;-65
2023/02/03 02:09:49;;;;;;;13.82;7.38;;;;;;;;;;5035997;28;20221;-65
2023/02/03 02:12:15;;;;;;;15.80;6.85;;;;;;;;;;5023141;28;20220;-66
2023/02/03 02:14:41;;;;;;;18.23;7.22;;;;;;;;;;5039272;28;20263;-65
2023/02/03 02:17:36;;;;;;;20.75;6.90;;;;;;;;;;5038933;28;20239;-65
2023/02/03 02:20:26;;;;;;;14.18;7.18;;;;;;;;;;5032988;28;20251;-65
2023/02/03 02:23:10;;;;;;;13.07;6.85;;;;;;;;;;5036061;28;20189;-65
2023/02/03 02:25:50;;;;;;;19.13;6.53;;;;;;;;;;5040072;28;20246;-66
2023/02/03 02:28:44;;;;;;;17.45;6.65;;;;;;;;;;5033290;28;20217;-65
2023/02/03 02:31:39;;;;;;;19.05;6.70;;;;;;;;;;5016176;28;20231;-65
2023/02/03 02:34:53;;;;;;;15.40;6.45;;;;;;;;;;5028798;28;20197;-66
2023/02/03 02:37:33;;;;;;;14.32;6.00;;;;;;;;;;5005882;28;20203;-66
2023/02/03 02:40:39;;;;;;;13.65;5.82;;;;;;;;;;5015326;28;20221;-66
2023/02/03 02:43:26;;;;;;;22.85;6.28;;;;;;;;;;5021409;28;20209;-66
2023/02/03 02:45:54;;;;;;;16.42;5.80;;;;;;;;;;5023864;28;20222;-66
2023/02/03 02:48:31;;;;;;;16.75;5.15;;;;;;;;;;5025902;28;20665;-66
2023/02/03 02:50:59;;;;;;;13.07;5.28;;;;;;;;;;5020927;28;20193;-66
2023/02/03 02:53:28;;;;;;;19.15;5.68;;;;;;;;;;5023928;28;20673;-66
2023/02/03 02:55:56;;;;;;;11.63;4.65;;;;;;;;;;5019547;28;20277;-65
2023/02/03 02:58:23;;;;;;;10.25;4.65;;;;;;;;;;5023793;28;20474;-65
2023/02/03 03:00:48;;;;;;;18.70;5.15;;;;;;;;;;5037592;28;20217;-65
2023/02/03 03:03:19;;;;;;;11.45;4.22;;;;;;;;;;5033377;28;20190;-66
2023/02/03 03:05:59;;;;;;;10.82;3.92;;;;;;;;;;5036454;28;20653;-66
2023/02/03 03:08:34;;;;;;;16.15;4.32;;;;;;;;;;5013942;28;20197;-66
2023/02/03 03:11:01;;;;;;;16.38;4.07;;;;;;;;;;5016945;28;20487;-65
2023/02/03 03:13:33;;;;;;;16.80;4.07;;;;;;;;;;5026990;28;20187;-66
2023/02/03 03:16:01;;;;;;;17.17;4.07;;;;;;;;;;5038333;28;20539;-66
2023/02/03 03:18:33;;;;;;;10.30;3.45;;;;;;;;;;5031218;28;20186;-66
2023/02/03 03:21:05;;;;;;;11.10;3.25;;;;;;;;;;5035397;28;20714;-65
2023/02/03 03:23:43;;;;;;;12.23;3.05;;;;;;;;;;5034158;28;20204;-66
2023/02/03 03:26:20;;;;;;;11.10;3.00;;;;;;;;;;5034808;28;20193;-65
2023/02/03 03:28:49;;;;;;;14.93;3.78;;;;;;;;;;5040042;28;20589;-65
2023/02/03 03:31:17;;;;;;;9.25;2.55;;;;;;;;;;5037427;28;20182;-65
2023/02/03 03:33:43;;;;;;;17.50;3.75;;;;;;;;;;5037279;28;20339;-65
2023/02/03 03:36:18;;;;;;;11.77;3.33;;;;;;;;;;5030769;28;20194;-65
2023/02/03 03:39:06;;;;;;;9.88;2.42;;;;;;;;;;5032071;28;20178;-65
2023/02/03 03:41:53;;;;;;;8.82;2.33;;;;;;;;;;5030655;28;20256;-65
2023/02/03 03:44:24;;;;;;;10.88;2.90;;;;;;;;;;5035918;28;20216;-65
2023/02/03 03:47:05;;;;;;;10.57;2.83;;;;;;;;;;5026963;28;20194;-65
2023/02/03 03:49:32;;;;;;;13.60;3.92;;;;;;;;;;5028311;28;20197;-65
2023/02/03 03:52:03;;;;;;;9.77;2.13;;;;;;;;;;5035401;28;20643;-65
2023/02/03 03:54:31;;;;;;;9.68;1.88;;;;;;;;;;5043331;28;20208;-65
2023/02/03 03:57:08;;;;;;;10.23;2.00;;;;;;;;;;5033306;28;20209;-65
2023/02/03 03:59:38;;;;;;;14.82;2.50;;;;;;;;;;5026345;28;20733;-65
2023/02/03 04:02:04;;;;;;;15.27;2.63;;;;;;;;;;5030319;28;20572;-65
2023/02/03 04:04:31;;;;;;;8.60;2.28;;;;;;;;;;5031217;28;20194;-65
2023/02/03 04:06:57;;;;;;;7.85;1.92;;;;;;;;;;5025831;28;20540;-66
2023/02/03 04:09:23;;;;;;;9.90;2.25;;;;;;;;;;5022990;28;20186;-65
2023/02/03 04:12:00;;;;;;;12.93;2.17;;;;;;;;;;5018845;28;20205;-65
2023/02/03 04:14:27;;;;;;;11.25;2.25;;;;;;;;;;5023746;28;20181;-65
2023/02/03 04:16:52;;;;;;;10.70;2.15;;;;;;;;;;5042767;28;20205;-65
2023/02/03 04:19:17;;;;;;;15.30;2.40;;;;;;;;;;5037951;28;20186;-65
2023/02/03 04:21:43;;;;;;;6.88;2.05;;;;;;;;;;5034783;28;20565;-65
2023/02/03 04:24:08;;;;;;;7.90;1.80;;;;;;;;;;5031865;28;20207;-65
2023/02/03 04:26:34;;;;;;;9.23;1.90;;;;;;;;;;5026595;28;20262;-65
2023/02/03 04:28:59;;;;;;;8.60;1.33;;;;;;;;;;5019121;28;20197;-65
2023/02/03 04:31:24;;;;;;;9.27;1.60;;;;;;;;;;5031067;28;20189;-65
2023/02/03 04:33:50;;;;;;;5.80;1.60;;;;;;;;;;5028609;28;20343;-65
2023/02/03 04:36:15;;;;;;;9.50;1.98;;;;;;;;;;5019860;28;20198;-65
2023/02/03 04:38:40;;;;;;;8.32;1.70;;;;;;;;;;5018162;28;20194;-65
2023/02/03 04:41:06;;;;;;;9.35;1.77;;;;;;;;;;5026505;28;20621;-65
2023/02/03 04:43:31;;;;;;;9.38;1.73;;;;;;;;;;5035044;28;20422;-65
2023/02/03 04:45:59;;;;;;;10.88;1.70;;;;;;;;;;5033368;28;20198;-65
2023/02/03 04:48:25;;;;;;;6.20;1.30;;;;;;;;;;5030537;28;20182;-65
2023/02/03 04:50:50;;;;;;;10.25;1.60;;;;;;;;;;5032527;28;20638;-65
2023/02/03 04:53:15;;;;;;;4.47;1.35;;;;;;;;;;5035113;28;20271;-65
2023/02/03 04:55:41;;;;;;;8.35;1.55;;;;;;;;;;5033984;28;20186;-67
2023/02/03 04:58:06;;;;;;;8.73;2.28;;;;;;;;;;5032021;28;20344;-66
2023/02/03 05:00:31;;;;;;;7.15;1.70;;;;;;;;;;5029081;28;20225;-66
2023/02/03 05:02:57;;;;;;;9.35;2.85;;;;;;;;;;5028545;28;20190;-66
2023/02/03 05:05:22;;;;;;;4.00;1.70;;;;;;;;;;5023004;28;20645;-65
2023/02/03 05:07:47;;;;;;;7.50;1.90;;;;;;;;;;5031754;28;20200;-65
2023/02/03 05:10:13;;;;;;;7.40;1.65;;;;;;;;;;5028828;28;20208;-66
2023/02/03 05:12:38;;;;;;;9.30;2.08;;;;;;;;;;5030804;28;20285;-66
2023/02/03 05:15:04;;;;;;;8.07;1.65;;;;;;;;;;5030639;28;20217;-65
2023/02/03 05:17:30;;;;;;;10.90;1.65;;;;;;;;;;5034396;28;20220;-66
2023/02/03 05:19:55;;;;;;;8.30;1.70;;;;;;;;;;5029969;28;20221;-66
2023/02/03 05:22:20;;;;;;;5.93;2.03;;;;;;;;;;5034728;28;20218;-65
2023/02/03 05:24:46;;;;;;;13.90;1.90;;;;;;;;;;5040220;28;20618;-65
2023/02/03 05:27:11;;;;;;;7.65;1.77;;;;;;;;;;5047070;28;20216;-65
2023/02/03 05:29:36;;;;;;;7.88;1.98;;;;;;;;;;5040985;28;20559;-64
2023/02/03 05:32:02;;;;;;;7.60;2.03;;;;;;;;;;5037786;28;20234;-65
2023/02/03 05:34:27;;;;;;;7.72;1.50;;;;;;;;;;5040969;28;20181;-66
2023/02/03 05:36:53;;;;;;;5.82;1.40;;;;;;;;;;5040578;28;20572;-65
2023/02/03 05:39:18;;;;;;;7.72;1.80;;;;;;;;;;5030403;28;20198;-65
2023/02/03 05:41:52;;;;;;;4.28;1.33;;;;;;;;;;5033214;28;20218;-65
2023/02/03 05:44:22;;;;;;;8.35;2.08;;;;;;;;;;5039368;28;20211;-65
2023/02/03 05:46:48;;;;;;;9.45;2.00;;;;;;;;;;5032356;28;20225;-66
2023/02/03 05:49:14;;;;;;;8.95;1.80;;;;;;;;;;5036667;28;20241;-65
2023/02/03 05:51:39;;;;;;;9.80;2.10;;;;;;;;;;5029694;28;20193;-66
2023/02/03 05:54:05;;;;;;;8.20;2.03;;;;;;;;;;5037421;28;20607;-66
2023/02/03 05:56:31;;;;;;;10.52;1.95;;;;;;;;;;5041568;28;20727;-65
2023/02/03 05:58:56;;;;;;;6.50;1.88;;;;;;;;;;5024212;28;20336;-66
2023/02/03 06:01:21;;;;;;;7.15;2.42;;;;;;;;;;5035202;28;20209;-66
2023/02/03 06:03:47;;;;;;;10.85;3.00;;;;;;;;;;5035441;28;20193;-66
2023/02/03 06:06:12;;;;;;;12.27;2.03;;;;;;;;;;5044899;28;20243;-66
2023/02/03 06:08:38;;;;;;;6.75;1.70;;;;;;;;;;5032029;28;20193;-66
2023/02/03 06:11:04;;;;;;;7.78;1.90;;;;;;;;;;5038800;28;20217;-66
2023/02/03 06:13:29;;;;;;;11.68;1.77;;;;;;;;;;5035976;28;20269;-66
2023/02/03 06:15:55;;;;;;;8.38;2.08;;;;;;;;;;5043949;28;20772;-67
2023/02/03 06:18:23;;;;;;;9.57;1.90;;;;;;;;;;5035597;28;20887;-66
2023/02/03 06:20:49;;;;;;;13.30;2.47;;;;;;;;;;5032671;28;20213;-66
2023/02/03 06:23:16;;;;;;;5.82;1.80;;;;;;;;;;5040144;28;20202;-66
2023/02/03 06:25:42;;;;;;;8.75;1.90;;;;;;;;;;5043798;28;20654;-66
2023/02/03 06:28:07;;;;;;;7.30;2.50;;;;;;;;;;5035482;28;20224;-66
2023/02/03 06:30:32;;;;;;;9.18;2.00;;;;;;;;;;5029390;28;20213;-65
2023/02/03 06:32:58;;;;;;;5.70;2.13;;;;;;;;;;5021515;28;20284;-66
2023/02/03 06:35:23;;;;;;;9.18;1.85;;;;;;;;;;5028246;28;20189;-66
2023/02/03 06:37:48;;;;;;;6.75;1.83;;;;;;;;;;5041261;28;20566;-65
2023/02/03 06:40:14;;;;;;;8.05;1.92;;;;;;;;;;5037947;28;20205;-65
2023/02/03 06:42:39;;;;;;;8.43;2.20;;;;;;;;;;5031795;28;20603;-66
2023/02/03 06:45:05;;;;;;;8.77;2.20;;;;;;;;;;5035053;28;20193;-66
2023/02/03 06:47:30;;;;;;;10.32;1.92;;;;;;;;;;5028276;28;20671;-65
2023/02/03 06:49:56;;;;;;;9.38;2.30;;;;;;;;;;5029809;28;20658;-66
2023/02/03 06:52:21;;;;;;;5.32;2.28;;;;;;;;;;5026038;28;20189;-65
2023/02/03 06:54:46;;;;;;;11.77;2.33;;;;;;;;;;5013918;28;20264;-65
2023/02/03 06:57:12;;;;;;;7.53;2.22;;;;;;;;;;4322543;28;10000723;-66
2023/02/03 06:59:37;;;;;;;6.43;2.00;;;;;;;;;;5025288;28;20652;-66
2023/02/03 07:02:03;;;;;;;10.27;2.10;;;;;;;;;;5027900;28;20249;-65
2023/02/03 07:04:29;;;;;;;13.00;2.22;;;;;;;;;;5024323;28;20254;-65
2023/02/03 07:06:56;;;;;;;6.75;2.25;;;;;;;;;;5029495;28;20190;-65
2023/02/03 07:09:21;;;;;;;10.95;2.63;;;;;;;;;;5031436;28;20197;-65
2023/02/03 07:11:47;;;;;;;7.97;1.95;;;;;;;;;;5022870;28;20186;-66
2023/02/03 07:14:12;;;;;;;10.18;2.28;;;;;;;;;;5018055;28;20546;-65
2023/02/03 07:16:38;;;;;;;13.20;2.80;;;;;;;;;;5021385;28;20202;-66
2023/02/03 07:19:04;;;;;;;11.27;2.53;;;;;;;;;;5023924;28;20226;-65
2023/02/03 07:21:29;;;;;;;10.93;2.28;;;;;;;;;;5030895;28;20216;-66
2023/02/03 07:23:54;;;;;;;9.52;2.55;;;;;;;;;;5038468;28;20212;-65
2023/02/03 07:26:21;;;;;;;8.57;2.47;;;;;;;;;;5044573;28;20186;-66
2023/02/03 07:28:47;;;;;;;8.38;2.00;;;;;;;;;;5037135;28;20563;-66
2023/02/03 07:31:13;;;;;;;11.02;2.40;;;;;;;;;;5029066;28;20182;-65
2023/02/03 07:33:39;;;;;;;10.80;3.20;;;;;;;;;;5040538;28;20308;-66
2023/02/03 07:36:05;;;;;;;7.28;1.83;;;;;;;;;;5031563;28;20566;-66
2023/02/03 07:38:31;;;;;;;8.30;1.88;;;;;;;;;;5024888;28;20190;-65
2023/02/03 07:40:56;;;;;;;6.78;1.92;;;;;;;;;;5032559;28;20202;-66
2023/02/03 07:43:22;;;;;;;12.43;2.40;;;;;;;;;;5025215;28;20197;-66
2023/02/03 07:45:47;;;;;;;10.85;2.00;;;;;;;;;;5032845;28;20193;-66
2023/02/03 07:48:13;;;;;;;8.02;2.38;;;;;;;;;;5027691;28;20232;-66
2023/02/03 07:50:39;;;;;;;8.75;2.10;;;;;;;;;;5021976;28;20186;-65
2023/02/03 07:53:07;;;;;;;8.98;1.77;;;;;;;;;;5023380;28;20186;-65
2023/02/03 07:55:33;;;;;;;8.57;2.03;;;;;;;;;;5038567;28;20177;-65
2023/02/03 07:57:58;;;;;;;7.90;2.38;;;;;;;;;;5040241;28;20243;-65
2023/02/03 08:00:24;;;;;;;6.60;1.77;;;;;;;;;;5043960;28;20220;-66
2023/02/03 08:02:50;;;;;;;9.45;1.90;;;;;;;;;;5043921;28;20276;-66
2023/02/03 08:05:17;;;;;;;11.25;2.75;;;;;;;;;;5038890;28;20284;-65
2023/02/03 08:07:42;;;;;;;10.93;2.70;;;;;;;;;;5040279;28;20235;-66
2023/02/03 08:10:11;;;;;;;8.85;2.20;;;;;;;;;;5035317;28;20177;-65
2023/02/03 08:12:37;;;;;;;8.20;2.22;;;;;;;;;;5041588;28;20630;-65
2023/02/03 08:15:03;;;;;;;12.05;2.80;;;;;;;;;;5039891;28;20174;-65
2023/02/03 08:17:28;;;;;;;9.45;1.95;;;;;;;;;;5037834;28;20214;-66
2023/02/03 08:19:54;;;;;;;7.80;2.20;;;;;;;;;;5040886;28;20711;-65
2023/02/03 08:22:19;;;;;;;9.18;2.55;;;;;;;;;;5040645;28;20254;-65
2023/02/03 08:24:46;;;;;;;10.13;2.08;;;;;;;;;;5037494;28;20200;-66
2023/02/03 08:27:12;;;;;;;11.25;2.28;;;;;;;;;;5044941;28;20627;-65
2023/02/03 08:29:38;;;;;;;8.90;2.20;;;;;;;;;;5032271;28;20189;-66
2023/02/03 08:32:04;;;;;;;8.50;2.25;;;;;;;;;;5039294;28;20270;-67
2023/02/03 08:34:29;;;;;;;7.97;2.13;;;;;;;;;;5045806;28;20190;-66
2023/02/03 08:36:55;;;;;;;8.80;1.98;;;;;;;;;;5042389;28;20201;-66
2023/02/03 08:39:20;;;;;;;6.80;2.40;;;;;;;;;;5034847;28;20198;-65
2023/02/03 08:41:46;;;;;;;8.00;1.88;;;;;;;;;;5045562;28;20205;-65
2023/02/03 08:44:11;;;;;;;6.85;2.50;;;;;;;;;;5047759;28;20178;-65
2023/02/03 08:46:42;;;;;;;12.55;2.60;;;;;;;;;;5037343;28;20200;-67
2023/02/03 08:49:08;;;;;;;12.55;2.40;;;;;;;;;;5037944;28;20181;-66
2023/02/03 08:51:33;;;;;;;7.80;2.25;;;;;;;;;;5044106;28;20184;-66
2023/02/03 08:53:58;;;;;;;11.38;2.70;;;;;;;;;;5046535;28;20197;-66
2023/02/03 08:56:25;;;;;;;9.45;1.92;;;;;;;;;;5047598;28;20559;-65
2023/02/03 08:58:51;;;;;;;12.98;2.15;;;;;;;;;;5048162;28;20196;-66
2023/02/03 09:01:16;;;;;;;8.75;1.85;;;;;;;;;;5048228;28;20202;-66
2023/02/03 09:03:41;;;;;;;8.02;2.35;;;;;;;;;;5044741;28;20713;-64
2023/02/03 09:06:07;;;;;;;11.00;3.10;;;;;;;;;;5048078;28;20190;-65
2023/02/03 09:08:32;;;;;;;8.38;2.30;;;;;;;;;;5039251;28;20565;-65
2023/02/03 09:10:58;;;;;;;15.25;2.65;;;;;;;;;;5047457;28;20193;-65
2023/02/03 09:13:23;;;;;;;10.15;2.58;;;;;;;;;;5037879;28;20192;-65
2023/02/03 09:15:49;;;;;;;10.45;2.50;;;;;;;;;;5033041;28;20198;-64
2023/02/03 09:18:14;;;;;;;12.02;2.90;;;;;;;;;;5036446;28;20359;-66
2023/02/03 09:20:39;;;;;;;8.63;2.22;;;;;;;;;;5049086;28;20675;-66
2023/02/03 09:23:05;;;;;;;10.07;2.40;;;;;;;;;;5039040;28;20268;-65
2023/02/03 09:25:31;;;;;;;12.15;2.50;;;;;;;;;;5045490;28;20196;-65
2023/02/03 09:27:57;;;;;;;10.95;2.13;;;;;;;;;;5042274;28;20194;-66
2023/02/03 09:30:22;;;;;;;9.35;2.20;;;;;;;;;;5044646;28;20262;-65
2023/02/03 09:32:53;;;;;;;10.45;2.22;;;;;;;;;;5038668;28;20361;-65
2023/02/03 09:35:19;;;;;;;6.93;1.98;;;;;;;;;;5044207;28;20197;-65
2023/02/03 09:37:45;;;;;;;10.55;2.35;;;;;;;;;;5037373;28;20574;-65
2023/02/03 09:40:33;;;;;;;11.27;2.30;;;;;;;;;;5036535;28;20198;-65
2023/02/03 09:43:16;;;;;;;11.30;2.55;;;;;;;;;;5044019;28;20503;-65
2023/02/03 09:45:42;;;;;;;8.93;1.80;;;;;;;;;;5046419;28;20182;-64
2023/02/03 09:48:22;;;;;;;12.63;2.65;;;;;;;;;;5043638;28;20252;-65
2023/02/03 09:50:49;;;;;;;11.15;2.10;;;;;;;;;;5046555;28;20632;-65
2023/02/03 09:53:35;;;;;;;11.70;2.75;;;;;;;;;;5046713;28;20189;-65
2023/02/03 09:56:01;;;;;;;18.83;2.97;;;;;;;;;;5036701;28;20185;-66
2023/02/03 09:58:32;;;;;;;10.23;2.10;;;;;;;;;;5041614;28;20558;-66
2023/02/03 10:01:00;;;;;;;12.57;2.67;;;;;;;;;;5042677;28;20210;-67
2023/02/03 10:03:52;;;;;;;8.88;2.13;;;;;;;;;;5031293;28;20183;-65
2023/02/03 10:06:30;;;;;;;10.98;2.60;;;;;;;;;;5031924;28;20209;-65
2023/02/03 10:08:56;;;;;;;12.35;2.15;;;;;;;;;;5037862;28;20198;-66
2023/02/03 10:11:27;;;;;;;9.95;2.20;;;;;;;;;;5029165;28;20475;-66
2023/02/03 10:14:20;;;;;;;15.35;3.47;;;;;;;;;;5028670;28;20216;-66
2023/02/03 10:17:14;;;;;;;11.85;2.33;;;;;;;;;;5026982;28;20205;-66
2023/02/03 10:19:50;;;;;;;16.25;2.15;;;;;;;;;;5037147;28;20462;-65
2023/02/03 10:22:22;;;;;;;15.35;2.25;;;;;;;;;;5038178;28;20221;-65
2023/02/03 10:24:57;;;;;;;11.98;2.28;;;;;;;;;;5030712;28;20324;-66
2023/02/03 10:27:23;;;;;;;11.18;2.25;;;;;;;;;;5038415;28;20212;-65
2023/02/03 10:30:27;;;;;;;10.40;2.13;;;;;;;;;;5018061;28;20285;-65
2023/02/03 10:32:56;;;;;;;16.35;2.55;;;;;;;;;;5023538;28;20225;-66
2023/02/03 10:35:28;;;;;;;13.63;2.50;;;;;;;;;;5017277;28;20186;-66
2023/02/03 10:37:57;;;;;;;14.20;2.72;;;;;;;;;;5013869;28;20190;-66
2023/02/03 10:40:24;;;;;;;12.02;2.35;;;;;;;;;;5020562;28;20209;-66
2023/02/03 10:45:38;;;;;;;12.82;2.85;;;;;;;;;;5020667;28;20224;-66
2023/02/03 10:48:09;;;;;;;18.52;3.25;;;;;;;;;;5027320;28;20673;-66
2023/02/03 10:50:37;;;;;;;10.85;2.75;;;;;;;;;;5027403;28;20348;-65
2023/02/03 10:53:23;;;;;;;17.27;2.65;;;;;;;;;;5027884;28;20186;-66
2023/02/03 10:56:00;;;;;;;12.38;2.83;;;;;;;;;;5010508;28;20218;-66
2023/02/03 10:58:27;;;;;;;11.27;2.67;;;;;;;;;;5025710;28;20680;-67
2023/02/03 11:01:13;;;;;;;15.95;2.70;;;;;;;;;;5021231;28;20301;-66
2023/02/03 11:03:54;;;;;;;11.82;2.80;;;;;;;;;;5016985;28;20218;-66
2023/02/03 11:06:19;;;;;;;14.80;2.70;;;;;;;;;;5027734;28;20639;-66
2023/02/03 11:08:47;;;;;;;13.50;3.28;;;;;;;;;;5027037;28;20273;-66
2023/02/03 11:11:20;;;;;;;16.15;2.78;;;;;;;;;;5028211;28;20190;-66
2023/02/03 11:13:48;;;;;;;11.00;2.60;;;;;;;;;;5028410;28;20706;-66
2023/02/03 11:16:15;;;;;;;14.52;3.60;;;;;;;;;;5025364;28;20272;-67
2023/02/03 11:18:42;;;;;;;16.38;2.92;;;;;;;;;;5027561;28;20660;-67
2023/02/03 11:21:11;;;;;;;13.23;2.85;;;;;;;;;;5036906;28;20680;-67
2023/02/03 11:23:44;;;;;;;16.25;3.20;;;;;;;;;;5040809;28;20196;-67
2023/02/03 11:26:13;;;;;;;13.88;2.50;;;;;;;;;;5037510;28;20191;-67
2023/02/03 11:28:42;;;;;;;11.65;2.80;;;;;;;;;;5034082;28;20186;-66
2023/02/03 11:31:17;;;;;;;17.70;3.15;;;;;;;;;;5040443;28;20557;-67
2023/02/03 11:33:47;;;;;;;21.08;3.30;;;;;;;;;;5036508;28;20194;-67
2023/02/03 11:36:12;;;;;;;14.45;2.80;;;;;;;;;;5036862;28;20198;-67
2023/02/03 11:38:41;;;;;;;18.38;2.90;;;;;;;;;;5025736;28;20535;-67
2023/02/03 11:41:17;;;;;;;12.40;2.97;;;;;;;;;;5026657;28;20208;-67
2023/02/03 11:43:43;;;;;;;18.83;3.05;;;;;;;;;;5031814;28;20198;-67
2023/02/03 11:46:09;;;;;;;23.42;3.15;;;;;;;;;;5039330;28;20196;-67
2023/02/03 11:48:37;;;;;;;22.98;3.03;;;;;;;;;;5034017;28;20371;-66
2023/02/03 11:51:34;;;;;;;16.85;2.80;;;;;;;;;;5042627;28;20778;-67
2023/02/03 11:54:32;;;;;;;22.65;4.38;;;;;;;;;;5029305;28;20773;-69
2023/02/03 11:57:29;;;;;;;25.88;4.68;;;;;;;;;;5030674;28;20713;-68
2023/02/03 12:00:21;;;;;;;25.08;4.22;;;;;;;;;;5014887;28;20233;-67
2023/02/03 12:03:17;;;;;;;21.40;3.88;;;;;;;;;;5040599;28;20185;-67
2023/02/03 12:05:48;;;;;;;26.15;4.18;;;;;;;;;;5020692;28;20202;-67
2023/02/03 12:08:37;;;;;;;20.02;3.47;;;;;;;;;;5030608;28;20182;-67
2023/02/03 12:11:09;;;;;;;27.92;3.83;;;;;;;;;;5030335;28;20198;-67
2023/02/03 12:14:06;;;;;;;22.70;3.88;;;;;;;;;;5033869;28;20213;-68
2023/02/03 12:17:06;;;;;;;19.85;3.78;;;;;;;;;;5013538;28;20256;-67
2023/02/03 12:20:01;;;;;;;29.63;4.38;;;;;;;;;;5024856;28;20190;-66
2023/02/03 12:22:43;;;;;;;32.70;3.88;;;;;;;;;;5035763;28;20206;-66
2023/02/03 12:25:38;;;;;;;23.58;4.22;;;;;;;;;;5036286;28;20625;-67
2023/02/03 12:28:26;;;;;;;21.15;4.38;;;;;;;;;;5042499;28;20189;-67
2023/02/03 12:30:57;;;;;;;30.05;4.57;;;;;;;;;;5023668;28;20254;-66
2023/02/03 12:33:47;;;;;;;29.95;4.32;;;;;;;;;;5030919;28;20234;-68
2023/02/03 12:36:19;;;;;;;29.27;5.25;;;;;;;;;;5036727;28;20278;-67
2023/02/03 12:38:59;;;;;;;30.40;3.72;;;;;;;;;;5031015;28;20213;-66
2023/02/03 12:41:28;;;;;;;26.25;3.63;;;;;;;;;;5019023;28;20287;-67
2023/02/03 12:44:00;;;;;;;28.98;4.22;;;;;;;;;;5024529;28;20193;-67
2023/02/03 12:46:58;;;;;;;27.08;4.10;;;;;;;;;;5018148;28;20186;-67
2023/02/03 12:49:42;;;;;;;28.98;4.60;;;;;;;;;;5028036;28;20198;-66
2023/02/03 12:52:20;;;;;;;25.23;4.18;;;;;;;;;;5030361;28;20590;-67
2023/02/03 12:54:55;;;;;;;19.90;3.80;;;;;;;;;;5030242;28;20186;-66
2023/02/03 12:57:40;;;;;;;28.10;4.13;;;;;;;;;;5039834;28;20199;-71
2023/02/03 13:00:11;;;;;;;30.30;4.72;;;;;;;;;;5008642;28;20226;-66
2023/02/03 13:02:59;;;;;;;24.80;4.22;;;;;;;;;;5023694;28;20243;-66
2023/02/03 13:05:36;;;;;;;25.27;4.43;;;;;;;;;;5029081;28;20228;-67
2023/02/03 13:08:12;;;;;;;25.00;4.53;;;;;;;;;;5046025;28;20679;-66
2023/02/03 13:11:00;;;;;;;34.92;6.18;;;;;;;;;;5026555;28;20233;-66
2023/02/03 13:13:38;;;;;;;19.15;3.75;;;;;;;;;;5035069;28;20201;-66
2023/02/03 13:16:07;;;;;;;28.98;4.43;;;;;;;;;;5044934;28;20177;-66
2023/02/03 13:18:41;;;;;;;26.80;4.05;;;;;;;;;;5030343;28;20185;-66
2023/02/03 13:21:11;;;;;;;24.40;4.28;;;;;;;;;;5022759;28;20232;-66
2023/02/03 13:23:43;;;;;;;30.75;4.05;;;;;;;;;;5029243;28;20194;-66
2023/02/03 13:26:34;;;;;;;22.65;4.22;;;;;;;;;;5031218;28;20185;-66
2023/02/03 13:29:27;;;;;;;32.28;4.80;;;;;;;;;;5033061;28;20225;-66
2023/02/03 13:32:01;;;;;;;29.85;4.38;;;;;;;;;;5017542;28;20287;-66
2023/02/03 13:34:36;;;;;;;35.85;5.28;;;;;;;;;;5029599;28;20924;-67
2023/02/03 13:37:32;;;;;;;30.65;4.18;;;;;;;;;;5030552;28;20275;-67
2023/02/03 13:40:03;;;;;;;33.45;5.00;;;;;;;;;;5013381;28;20186;-67
2023/02/03 13:42:37;;;;;;;25.92;4.32;;;;;;;;;;5026288;28;20650;-67
2023/02/03 13:45:27;;;;;;;37.83;5.82;;;;;;;;;;5023178;28;20202;-67
2023/02/03 13:47:59;;;;;;;32.42;4.70;;;;;;;;;;5027580;28;20297;-67
2023/02/03 13:50:28;;;;;;;24.13;4.72;;;;;;;;;;5029866;28;20178;-67
2023/02/03 13:53:06;;;;;;;36.30;4.45;;;;;;;;;;5029928;28;20228;-67
2023/02/03 13:55:38;;;;;;;28.08;4.93;;;;;;;;;;5029789;28;20189;-67
2023/02/03 13:58:07;;;;;;;20.83;3.95;;;;;;;;;;5029059;28;20251;-67
2023/02/03 14:00:44;;;;;;;28.92;4.82;;;;;;;;;;5017569;28;20661;-69
2023/02/03 14:03:25;;;;;;;27.55;4.03;;;;;;;;;;5027688;28;20197;-68
2023/02/03 14:05:55;;;;;;;28.08;4.65;;;;;;;;;;5029896;28;20189;-67
2023/02/03 14:08:26;;;;;;;22.92;3.85;;;;;;;;;;5028386;28;20281;-68
2023/02/03 14:11:29;;;;;;;23.98;3.97;;;;;;;;;;5029467;28;20775;-67
2023/02/03 14:14:15;;;;;;;32.58;4.53;;;;;;;;;;5034041;28;20209;-67
2023/02/03 14:16:42;;;;;;;30.40;4.60;;;;;;;;;;5020953;28;20206;-67
2023/02/03 14:19:31;;;;;;;27.00;4.30;;;;;;;;;;5028288;28;20209;-68
2023/02/03 14:22:14;;;;;;;31.33;4.43;;;;;;;;;;5029277;28;20565;-66
2023/02/03 14:24:45;;;;;;;32.55;4.03;;;;;;;;;;5027586;28;20247;-65
2023/02/03 14:27:27;;;;;;;32.63;4.90;;;;;;;;;;5023526;28;20239;-66
2023/02/03 14:30:06;;;;;;;32.13;4.57;;;;;;;;;;5023880;28;20617;-66
2023/02/03 14:32:52;;;;;;;36.53;4.95;;;;;;;;;;5026957;28;20504;-65
2023/02/03 14:35:31;;;;;;;35.42;5.13;;;;;;;;;;5033231;28;20189;-66
2023/02/03 14:38:00;;;;;;;36.53;4.35;;;;;;;;;;5042057;28;20197;-66
2023/02/03 14:40:26;;;;;;;43.42;5.40;;;;;;;;;;5042964;28;20227;-66
2023/02/03 14:43:06;;;;;;;29.58;4.80;;;;;;;;;;5039776;28;20224;-65
2023/02/03 14:45:50;;;;;;;33.63;5.25;;;;;;;;;;5036957;28;20185;-65
2023/02/03 14:48:18;;;;;;;25.85;4.38;;;;;;;;;;5044091;28;20195;-65
2023/02/03 14:51:32;;;;;;;29.83;4.70;;;;;;;;;;5043037;28;20189;-65
2023/02/03 14:54:48;;;;;;;29.70;4.57;;;;;;;;;;5033920;28;20209;-67
2023/02/03 14:57:29;;;;;;;31.38;4.57;;;;;;;;;;5032687;28;20588;-66
2023/02/03 15:00:02;;;;;;;38.55;5.50;;;;;;;;;;5041377;28;20213;-65
2023/02/03 15:02:30;;;;;;;31.67;4.72;;;;;;;;;;5044781;28;20197;-66